Terminal Aerodrome Forecast
Issued by NWS

Current Version | Previous Version | Text Only | Print | Product List | Glossary On
Versions: 1 2 3 4 5 6 7 8 9 10 11 12 13 14 15 16 17 18 19 20 21 22 23 24
000
FTUS43 KOAX 271352 AAA
TAFCDR
TAF AMD
KCDR 271352Z 2714/2812 VRB05KT P6SM SCT100 BKN250
     FM271700 27009KT P6SM BKN120 BKN250
     FM280100 25008KT P6SM SCT150 SCT250=

USA.gov is the U.S. government's official web portal to all federal, state and local government web resources and services.